Prior Lake, MN (55372)

11:11 PM CDT on October 25, 2014 (GMT -0500)
KMNPRIOR9 | Change Station
CLOSE
Current Station
Personal Weather Station
Location: Credit River, MN
Elevation: 935 ft
Nearby Weather Stations

Elev 935 ft 44.70 °N, 93.39 °W | Updated 1 second ago

Clear
Clear
41.4 °F
Feels Like 41 °F
N
0.0
Wind Variable Wind from West
Gusts 0.0 mph

Today
High -- | Low -- °F
--% Chance of Precip.
Yesterday
High -- | Low -- °F
Precip. -- in
7:42 AM 6:12 PM
Waxing Crescent, 6% visible
Pressure 30.06 in
Visibility 10.0 miles
Clouds Clear
Windchill 41 °F
Dew Point 41 °F
Humidity 100%
Rainfall 0.00 in
Snow Depth Not available.
UV 0.0 out of 12
Pollen 2.10 out of 12
Ozone Good
PM2.5 Good
Flu Activity Sporadic
METAR KFCM 260353Z AUTO 00000KT 10SM CLR 09/M03 A3004 RMK AO2 SLP177 T00891028

More Conditions Fewer Conditions

Pressure 30.06 in
Visibility 10.0 miles
Clouds Clear
Windchill 41 °F
Dew Point 41 °F
Humidity 100%
Rainfall 0.00 in
Snow Depth Not available.
UV 0.0 out of 12
Pollen 2.10 out of 12
Ozone Good
PM2.5 Good
Flu Activity Sporadic
METAR KFCM 260353Z AUTO 00000KT 10SM CLR 09/M03 A3004 RMK AO2 SLP177 T00891028

More Conditions Fewer Conditions

10-Day Weather Forecast

Almanac

Astronomy

Oct. 25, 2014 Rise Set
Actual Time 7:42 AM CDT 6:12 PM CDT
Civil Twilight 7:12 AM CDT 6:42 PM CDT
Nautical Twilight 6:37 AM CDT 7:16 PM CDT
Astronomical Twilight 6:04 AM CDT 7:50 PM CDT
Moon 9:24 AM CDT (10/25) 7:32 PM CDT (10/25)
Length of Visible Light 11h 30m
Length of Day
10h 30m
Tomorrow will be 2m 52s shorter.
Waxing Crescent, 6% of the Moon is Illuminated
Oct 26
Waxing Crescent
Oct 30
First Quarter
Nov 6
Full
Nov 14
Last Quarter
Nov 22
New

Today's Extremes

State Highs State Lows

Community

WunderPhotos

Upload Photos

1,765,107 photos uploaded!

Nearby

Air Quality

  Air Quality AQ Index Pollutant
Yesterday Moderate
PM2.5
Yesterday Good
OZONE
Current Good
PM2.5
Current Good
OZONE
Saturday Good
PM2.5
Sunday Moderate
PM2.5
Monday Good
PM2.5
Tuesday Good
PM2.5
Wednesday Good
PM2.5
Thursday Good
PM2.5

Snow Depth

Station Depth Elevation
No new snow has been reported.

Earthquake Activity

City Distance Mag. Time & Date
No recent earthquake activity has been reported nearby.
Minimum magnitude displayed is 2.5.

Coastal Water Temperatures

Place Temperature
No Stations Reporting

Nearby Weather Stations